Time;durP1;ratioP1;P1;durP2;ratioP2;P2;SDS_P1;SDS_P2;PMS_P1;PMS_P2;Temp;Humidity;BMP_temperature;BMP_pressure;BME280_temperature;BME280_humidity;BME280_pressure;Samples;Min_cycle;Max_cycle;Signal;HPM_P1;HPM_P2
2023/06/14 00:01:45;;;;;;;6.00;3.65;;;19.40;72.00;;;;;;5087743;28;20031;-54
2023/06/14 00:04:16;;;;;;;5.38;3.60;;;19.40;72.00;;;;;;5079810;28;20017;-49
2023/06/14 00:06:44;;;;;;;6.47;3.28;;;19.40;72.30;;;;;;5087949;28;20028;-49
2023/06/14 00:09:12;;;;;;;9.25;3.65;;;19.40;72.20;;;;;;5084302;28;20028;-53
2023/06/14 00:11:39;;;;;;;6.18;3.38;;;19.30;72.40;;;;;;5083108;28;20020;-54
2023/06/14 00:14:05;;;;;;;6.45;3.47;;;19.30;72.10;;;;;;5087935;28;20033;-53
2023/06/14 00:16:33;;;;;;;6.13;3.72;;;19.30;72.40;;;;;;5072540;28;20166;-54
2023/06/14 00:18:59;;;;;;;7.63;3.75;;;19.30;72.80;;;;;;5080052;28;20036;-52
2023/06/14 00:21:29;;;;;;;7.63;3.63;;;19.30;72.80;;;;;;5091174;28;20434;-51
2023/06/14 00:23:56;;;;;;;6.60;3.60;;;19.30;72.50;;;;;;5079632;28;20047;-53
2023/06/14 00:26:21;;;;;;;6.18;3.63;;;19.20;72.90;;;;;;5084174;28;20040;-53
2023/06/14 00:28:47;;;;;;;5.72;3.78;;;19.20;72.70;;;;;;5076960;28;20151;-51
2023/06/14 00:31:13;;;;;;;6.10;3.58;;;19.20;73.00;;;;;;5076823;28;20043;-54
2023/06/14 00:33:39;;;;;;;6.90;3.35;;;19.20;73.00;;;;;;5076884;28;20035;-52
2023/06/14 00:36:05;;;;;;;5.88;3.90;;;19.10;73.20;;;;;;5083312;28;20039;-52
2023/06/14 00:38:30;;;;;;;7.50;3.60;;;19.10;73.30;;;;;;5083018;28;20028;-52
2023/06/14 00:40:56;;;;;;;6.57;3.05;;;19.10;73.50;;;;;;5082479;28;20044;-51
2023/06/14 00:43:22;;;;;;;5.50;3.20;;;19.10;73.90;;;;;;5081343;28;20029;-51
2023/06/14 00:45:49;;;;;;;7.22;3.85;;;19.00;74.00;;;;;;5082903;28;20032;-51
2023/06/14 00:48:15;;;;;;;4.82;3.25;;;19.00;73.70;;;;;;5086532;28;20089;-52
2023/06/14 00:50:45;;;;;;;5.85;3.20;;;19.00;74.40;;;;;;5078809;28;20056;-50
2023/06/14 00:53:17;;;;;;;7.15;3.10;;;19.00;73.80;;;;;;5077889;28;20469;-49
2023/06/14 00:55:44;;;;;;;6.47;3.63;;;19.00;74.00;;;;;;5075829;28;20102;-53
2023/06/14 00:58:11;;;;;;;6.75;3.63;;;18.90;74.20;;;;;;5081181;28;20383;-49
2023/06/14 01:00:36;;;;;;;7.55;3.60;;;18.90;74.40;;;;;;5083887;28;20020;-53
2023/06/14 01:03:03;;;;;;;5.85;3.65;;;18.90;74.60;;;;;;5082905;28;20047;-50
2023/06/14 01:05:30;;;;;;;6.78;3.90;;;18.80;74.70;;;;;;5074010;28;20032;-50
2023/06/14 01:08:17;;;;;;;7.60;3.50;;;18.80;74.60;;;;;;5083763;28;20055;-52
2023/06/14 01:10:55;;;;;;;5.45;3.22;;;18.80;74.60;;;;;;5078299;28;20070;-50
2023/06/14 01:13:32;;;;;;;5.30;2.88;;;18.80;74.50;;;;;;5084175;28;20040;-50
2023/06/14 01:15:59;;;;;;;5.13;3.10;;;18.70;74.40;;;;;;5080860;28;20037;-51
2023/06/14 01:18:25;;;;;;;6.93;3.33;;;18.70;74.30;;;;;;5083489;28;20055;-51
2023/06/14 01:20:52;;;;;;;4.13;2.92;;;18.70;74.00;;;;;;5081387;28;20028;-52
2023/06/14 01:23:19;;;;;;;5.10;3.20;;;18.70;74.10;;;;;;5087775;28;20123;-53
2023/06/14 01:25:46;;;;;;;5.20;3.30;;;18.70;74.40;;;;;;5083438;28;20530;-52
2023/06/14 01:28:16;;;;;;;7.68;2.95;;;18.60;74.30;;;;;;5078582;28;20028;-51
2023/06/14 01:30:47;;;;;;;5.18;3.20;;;18.60;74.30;;;;;;5086762;28;20393;-49
2023/06/14 01:33:21;;;;;;;5.63;3.08;;;18.60;73.90;;;;;;5079786;28;20127;-54
2023/06/14 01:35:49;;;;;;;5.28;3.05;;;18.60;73.80;;;;;;5078858;28;20028;-54
2023/06/14 01:38:17;;;;;;;6.43;3.90;;;18.60;73.90;;;;;;5076731;28;20035;-52
2023/06/14 01:40:44;;;;;;;6.40;3.10;;;18.60;73.90;;;;;;5080028;28;20104;-54
2023/06/14 01:43:13;;;;;;;8.98;3.15;;;18.60;73.80;;;;;;5072105;28;20047;-50
2023/06/14 01:45:42;;;;;;;6.22;2.92;;;18.50;74.00;;;;;;5084293;28;20020;-54
2023/06/14 01:48:08;;;;;;;6.40;2.75;;;18.50;74.20;;;;;;5082792;28;20417;-50
2023/06/14 01:50:34;;;;;;;6.80;3.47;;;18.50;74.30;;;;;;5084963;28;20028;-54
2023/06/14 01:53:00;;;;;;;4.28;2.88;;;18.40;74.20;;;;;;5088830;28;20082;-53
2023/06/14 01:55:26;;;;;;;5.55;3.08;;;18.40;75.20;;;;;;5083093;28;20400;-50
2023/06/14 01:57:53;;;;;;;5.75;3.00;;;18.30;75.00;;;;;;5086517;28;20474;-54
2023/06/14 02:00:19;;;;;;;5.63;3.00;;;18.30;74.60;;;;;;5085271;28;20024;-53
2023/06/14 02:02:45;;;;;;;5.80;3.38;;;18.30;75.10;;;;;;5086998;28;20413;-53
2023/06/14 02:05:11;;;;;;;5.65;3.08;;;18.20;75.10;;;;;;5073071;28;20365;-49
2023/06/14 02:07:40;;;;;;;5.95;3.38;;;18.20;75.60;;;;;;5085370;28;20107;-51
2023/06/14 02:10:07;;;;;;;6.07;3.08;;;18.20;75.40;;;;;;5085428;28;20123;-52
2023/06/14 02:12:33;;;;;;;5.70;3.13;;;18.10;75.70;;;;;;5084320;28;20494;-51
2023/06/14 02:14:58;;;;;;;5.88;2.85;;;18.10;75.70;;;;;;5088507;28;20020;-54
2023/06/14 02:17:24;;;;;;;6.25;3.28;;;18.10;76.20;;;;;;5079627;28;20469;-54
2023/06/14 02:19:50;;;;;;;5.53;2.88;;;18.00;76.20;;;;;;5081625;28;20115;-53
2023/06/14 02:22:16;;;;;;;3.88;2.78;;;18.00;76.60;;;;;;5084436;28;20139;-51
2023/06/14 02:24:43;;;;;;;4.60;2.55;;;17.90;76.00;;;;;;5082900;28;20035;-51
2023/06/14 02:27:10;;;;;;;6.20;3.05;;;17.90;75.60;;;;;;5083836;28;20028;-51
2023/06/14 02:29:36;;;;;;;4.97;2.70;;;17.90;76.60;;;;;;5086396;28;20027;-53
2023/06/14 02:32:04;;;;;;;5.80;3.17;;;17.80;75.90;;;;;;5086484;28;20502;-52
2023/06/14 02:34:30;;;;;;;4.57;2.88;;;17.80;75.70;;;;;;5078336;28;20039;-53
2023/06/14 02:36:57;;;;;;;5.82;3.10;;;17.80;76.30;;;;;;5083462;28;20020;-51
2023/06/14 02:39:23;;;;;;;4.65;2.90;;;17.70;75.80;;;;;;5085031;28;20032;-51
2023/06/14 02:41:50;;;;;;;5.18;3.00;;;17.70;77.10;;;;;;5079445;28;20140;-53
2023/06/14 02:44:18;;;;;;;4.93;2.88;;;17.70;76.60;;;;;;5081380;28;20127;-49
2023/06/14 02:46:45;;;;;;;4.80;2.83;;;17.70;77.00;;;;;;5079099;28;20077;-54
2023/06/14 02:49:14;;;;;;;5.82;2.88;;;17.60;76.70;;;;;;5070398;28;20032;-53
2023/06/14 02:51:40;;;;;;;7.93;2.88;;;17.60;77.80;;;;;;5083762;28;20522;-51
2023/06/14 02:54:05;;;;;;;4.82;2.70;;;17.50;77.00;;;;;;5077649;28;20027;-52
2023/06/14 02:56:31;;;;;;;4.00;2.47;;;17.50;77.30;;;;;;5080932;28;20032;-54
2023/06/14 02:58:58;;;;;;;6.18;3.40;;;17.50;77.40;;;;;;5064464;28;20029;-50
2023/06/14 03:01:33;;;;;;;6.55;3.03;;;17.50;77.90;;;;;;5074916;28;20032;-52
2023/06/14 03:04:01;;;;;;;4.47;2.70;;;17.40;77.20;;;;;;5079558;28;20031;-53
2023/06/14 03:06:31;;;;;;;6.50;2.38;;;17.40;77.10;;;;;;5078643;28;20039;-51
2023/06/14 03:09:00;;;;;;;7.32;2.70;;;17.40;77.60;;;;;;5075321;28;20089;-51
2023/06/14 03:11:30;;;;;;;4.82;2.72;;;17.40;78.00;;;;;;5076756;28;20495;-53
2023/06/14 03:13:56;;;;;;;5.50;3.22;;;17.30;77.60;;;;;;5081219;28;20024;-50
2023/06/14 03:16:25;;;;;;;4.32;2.55;;;17.30;77.20;;;;;;5082751;28;20368;-51
2023/06/14 03:18:52;;;;;;;5.85;2.90;;;17.30;77.60;;;;;;5077726;28;20056;-54
2023/06/14 03:21:21;;;;;;;7.50;2.67;;;17.30;77.70;;;;;;5086028;28;20038;-53
2023/06/14 03:23:48;;;;;;;5.32;2.95;;;17.30;77.80;;;;;;5077910;28;20361;-52
2023/06/14 03:26:17;;;;;;;7.55;2.80;;;17.30;77.60;;;;;;5085288;28;20070;-54
2023/06/14 03:28:49;;;;;;;4.82;2.60;;;17.30;77.60;;;;;;5090632;28;20166;-49
2023/06/14 03:31:16;;;;;;;4.68;2.70;;;17.30;77.60;;;;;;5073473;28;20032;-53
2023/06/14 03:33:42;;;;;;;6.18;2.55;;;17.20;77.70;;;;;;5084086;28;20051;-52
2023/06/14 03:36:08;;;;;;;4.45;2.55;;;17.20;77.60;;;;;;5080725;28;20032;-54
2023/06/14 03:38:34;;;;;;;5.90;2.92;;;17.20;77.80;;;;;;5078294;28;20025;-50
2023/06/14 03:41:01;;;;;;;6.28;3.28;;;17.20;77.70;;;;;;5094326;28;20020;-50
2023/06/14 03:43:28;;;;;;;3.58;2.38;;;17.20;77.50;;;;;;5086193;28;20030;-51
2023/06/14 03:45:53;;;;;;;4.60;2.53;;;17.20;77.80;;;;;;5074072;28;20119;-50
2023/06/14 03:48:21;;;;;;;5.07;2.55;;;17.20;78.00;;;;;;5083398;28;20307;-49
2023/06/14 03:50:47;;;;;;;4.95;2.78;;;17.20;78.30;;;;;;5084315;28;20142;-53
2023/06/14 03:53:13;;;;;;;4.20;2.30;;;17.10;77.80;;;;;;5084196;28;20040;-54
2023/06/14 03:55:42;;;;;;;5.57;2.97;;;17.10;77.90;;;;;;5079169;28;20028;-53
2023/06/14 03:58:10;;;;;;;4.88;2.70;;;17.10;78.30;;;;;;5084619;28;20016;-53
2023/06/14 04:00:37;;;;;;;3.50;2.30;;;17.20;78.30;;;;;;5080064;28;20632;-54
2023/06/14 04:03:05;;;;;;;4.80;2.70;;;17.10;77.60;;;;;;5086756;28;20084;-52
2023/06/14 04:05:31;;;;;;;4.38;2.58;;;17.20;78.20;;;;;;5083598;28;20028;-53
2023/06/14 04:07:58;;;;;;;5.07;2.53;;;17.10;78.10;;;;;;5082057;28;20028;-53
2023/06/14 04:10:24;;;;;;;5.50;2.40;;;17.20;77.60;;;;;;5087366;28;20125;-53
2023/06/14 04:12:50;;;;;;;4.85;2.50;;;17.20;77.60;;;;;;5088087;28;20051;-52
2023/06/14 04:15:17;;;;;;;3.80;2.28;;;17.20;78.00;;;;;;5083174;28;20035;-53
2023/06/14 04:17:43;;;;;;;3.78;2.20;;;17.20;77.80;;;;;;5081475;28;20024;-51
2023/06/14 04:20:10;;;;;;;4.65;2.47;;;17.20;77.50;;;;;;5079018;28;20028;-51
2023/06/14 04:22:36;;;;;;;3.72;2.30;;;17.20;77.40;;;;;;5078007;28;20025;-54
2023/06/14 04:25:06;;;;;;;4.88;2.22;;;17.20;78.50;;;;;;5081302;28;20029;-51
2023/06/14 04:27:36;;;;;;;3.95;2.05;;;17.20;77.80;;;;;;5092294;28;20028;-54
2023/06/14 04:30:03;;;;;;;3.83;2.20;;;17.30;77.50;;;;;;5083509;28;20024;-50
2023/06/14 04:32:38;;;;;;;4.75;2.17;;;17.30;77.20;;;;;;5088921;28;20032;-54
2023/06/14 04:35:06;;;;;;;4.38;2.22;;;17.30;77.40;;;;;;5080599;28;20128;-55
2023/06/14 04:37:33;;;;;;;4.15;2.30;;;17.30;77.70;;;;;;5079076;28;20028;-52
2023/06/14 04:39:59;;;;;;;4.55;2.47;;;17.30;77.10;;;;;;5088885;28;20113;-52
2023/06/14 04:42:30;;;;;;;5.35;2.45;;;17.30;77.20;;;;;;5082561;28;20032;-54
2023/06/14 04:44:58;;;;;;;4.53;2.17;;;17.40;77.30;;;;;;5079011;28;20135;-51
2023/06/14 04:47:24;;;;;;;4.95;2.20;;;17.40;77.20;;;;;;5074486;28;20553;-50
2023/06/14 04:49:52;;;;;;;6.65;2.50;;;17.40;76.50;;;;;;5066379;28;20445;-52
2023/06/14 04:52:20;;;;;;;2.40;1.67;;;17.50;76.30;;;;;;5070562;28;20035;-51
2023/06/14 04:54:47;;;;;;;3.72;2.17;;;17.50;76.40;;;;;;5070552;28;20378;-50
2023/06/14 04:57:17;;;;;;;6.43;2.50;;;17.50;76.60;;;;;;5071701;28;20035;-53
2023/06/14 04:59:45;;;;;;;4.05;2.05;;;17.60;76.30;;;;;;5071834;28;20024;-51
2023/06/14 05:02:11;;;;;;;5.35;2.30;;;17.60;76.30;;;;;;5071545;28;20032;-52
2023/06/14 05:04:39;;;;;;;3.72;2.10;;;17.60;76.60;;;;;;5070314;28;20070;-53
2023/06/14 05:07:08;;;;;;;5.25;2.50;;;17.60;76.40;;;;;;5070875;28;20032;-49
2023/06/14 05:09:34;;;;;;;4.18;2.13;;;17.60;76.70;;;;;;5071691;28;20032;-49
2023/06/14 05:12:00;;;;;;;3.78;2.35;;;17.70;76.60;;;;;;5071079;28;20036;-53
2023/06/14 05:14:26;;;;;;;6.05;3.50;;;17.80;76.40;;;;;;5071512;28;20136;-53
2023/06/14 05:16:53;;;;;;;4.28;2.15;;;17.90;76.20;;;;;;5071206;28;20032;-50
2023/06/14 05:19:20;;;;;;;3.30;1.83;;;17.90;76.50;;;;;;5072684;28;20028;-51
2023/06/14 05:21:47;;;;;;;3.28;1.95;;;18.00;75.80;;;;;;5070368;28;20037;-54
2023/06/14 05:24:14;;;;;;;4.75;2.28;;;18.00;76.40;;;;;;5075783;28;20038;-53
2023/06/14 05:26:40;;;;;;;4.18;2.40;;;18.10;75.80;;;;;;5079320;28;20029;-49
2023/06/14 05:29:06;;;;;;;5.18;1.98;;;18.10;75.90;;;;;;5079395;28;20037;-53
2023/06/14 05:31:32;;;;;;;4.53;2.50;;;18.20;75.70;;;;;;5077152;28;20059;-53
2023/06/14 05:33:58;;;;;;;4.78;2.50;;;18.30;75.90;;;;;;5077108;28;20533;-50
2023/06/14 05:36:24;;;;;;;4.18;1.92;;;18.40;75.20;;;;;;5076427;28;20032;-48
2023/06/14 05:38:57;;;;;;;4.38;2.50;;;18.50;75.00;;;;;;5076631;28;20081;-53
2023/06/14 05:41:24;;;;;;;5.85;2.90;;;18.50;74.70;;;;;;5077030;28;20024;-51
2023/06/14 05:43:50;;;;;;;6.13;2.45;;;18.60;75.00;;;;;;5076770;28;20031;-53
2023/06/14 05:46:21;;;;;;;3.90;2.20;;;18.60;75.40;;;;;;5078322;28;20028;-53
2023/06/14 05:48:48;;;;;;;4.70;2.67;;;18.70;75.10;;;;;;5081878;28;20040;-50
2023/06/14 05:51:14;;;;;;;5.13;2.50;;;18.80;74.70;;;;;;5081325;28;20068;-52
2023/06/14 05:53:40;;;;;;;4.75;2.80;;;18.90;75.00;;;;;;5082054;28;20033;-50
2023/06/14 05:56:06;;;;;;;3.58;2.13;;;18.90;74.50;;;;;;5079471;28;20039;-53
2023/06/14 05:58:31;;;;;;;3.45;2.13;;;19.10;74.90;;;;;;5080038;28;20106;-53
2023/06/14 06:00:57;;;;;;;5.13;2.30;;;19.20;74.40;;;;;;5078998;28;20532;-49
2023/06/14 06:03:23;;;;;;;4.30;2.03;;;19.20;74.60;;;;;;5078273;28;20024;-50
2023/06/14 06:05:49;;;;;;;4.85;2.38;;;19.40;74.40;;;;;;5065169;28;20064;-49
2023/06/14 06:08:16;;;;;;;5.20;2.83;;;19.50;73.60;;;;;;5060690;28;20032;-49
2023/06/14 06:10:43;;;;;;;5.65;2.38;;;19.60;73.10;;;;;;5056436;28;20119;-51
2023/06/14 06:13:08;;;;;;;5.03;2.25;;;19.60;73.10;;;;;;5057866;28;20489;-52
2023/06/14 06:15:35;;;;;;;4.45;2.20;;;19.80;72.70;;;;;;5057782;28;20040;-50
2023/06/14 06:18:01;;;;;;;2.88;1.85;;;19.90;72.50;;;;;;5057750;28;20025;-53
2023/06/14 06:20:28;;;;;;;4.55;2.28;;;20.00;71.80;;;;;;5057346;28;20025;-52
2023/06/14 06:22:54;;;;;;;4.15;2.17;;;20.10;72.20;;;;;;5057415;28;20035;-50
2023/06/14 06:25:20;;;;;;;4.90;2.58;;;20.20;72.10;;;;;;5058336;28;20033;-51
2023/06/14 06:27:46;;;;;;;4.50;2.55;;;20.30;71.00;;;;;;5058001;28;20035;-51
2023/06/14 06:30:12;;;;;;;11.18;3.72;;;20.50;71.00;;;;;;5057244;28;20053;-51
2023/06/14 06:32:37;;;;;;;3.22;1.85;;;20.60;70.20;;;;;;5057377;28;20087;-51
2023/06/14 06:35:06;;;;;;;3.67;2.05;;;20.70;69.70;;;;;;5057004;28;20033;-53
2023/06/14 06:37:31;;;;;;;6.15;2.55;;;20.70;70.20;;;;;;5056850;28;20033;-52
2023/06/14 06:39:57;;;;;;;3.90;2.17;;;20.80;70.30;;;;;;5057591;28;20101;-51
2023/06/14 06:42:23;;;;;;;3.35;2.05;;;21.00;69.80;;;;;;5056169;28;20107;-48
2023/06/14 06:44:50;;;;;;;3.60;2.10;;;21.30;68.90;;;;;;5055386;28;20036;-51
2023/06/14 06:47:16;;;;;;;3.60;2.15;;;21.30;68.80;;;;;;5057031;28;20431;-50
2023/06/14 06:49:41;;;;;;;3.67;1.73;;;21.40;67.90;;;;;;5071093;28;20028;-52
2023/06/14 06:52:08;;;;;;;4.35;2.30;;;21.50;68.30;;;;;;5076684;28;20614;-53
2023/06/14 06:54:34;;;;;;;4.80;1.50;;;21.60;68.60;;;;;;5078098;28;20031;-52
2023/06/14 06:57:01;;;;;;;3.35;1.48;;;21.70;66.10;;;;;;5078017;28;20074;-50
2023/06/14 06:59:27;;;;;;;2.28;1.58;;;21.70;65.00;;;;;;5074730;28;20362;-52
2023/06/14 07:01:52;;;;;;;2.33;1.30;;;21.80;65.10;;;;;;5070920;28;20025;-53
2023/06/14 07:04:18;;;;;;;1.95;1.40;;;21.90;64.90;;;;;;5071503;28;20207;-53
2023/06/14 07:06:46;;;;;;;1.88;1.13;;;21.80;64.80;;;;;;5071597;28;20108;-53
2023/06/14 07:09:14;;;;;;;3.22;1.23;;;21.70;65.50;;;;;;5071805;28;20074;-53
2023/06/14 07:11:40;;;;;;;2.50;1.25;;;21.60;66.90;;;;;;5071368;28;20473;-53
2023/06/14 07:14:06;;;;;;;4.15;1.73;;;21.70;66.50;;;;;;5071163;28;20064;-54
2023/06/14 07:16:32;;;;;;;3.63;1.40;;;21.70;65.70;;;;;;5071133;28;20122;-54
2023/06/14 07:18:58;;;;;;;2.80;1.45;;;21.80;66.00;;;;;;5071396;28;20039;-53
2023/06/14 07:21:25;;;;;;;2.20;1.20;;;21.90;65.00;;;;;;5071325;28;20020;-53
2023/06/14 07:23:54;;;;;;;4.68;1.90;;;22.00;66.00;;;;;;5071795;28;20074;-52
2023/06/14 07:26:21;;;;;;;2.10;1.20;;;22.10;66.00;;;;;;5071153;28;20603;-52
2023/06/14 07:28:48;;;;;;;3.20;1.10;;;22.20;65.20;;;;;;5071409;28;20035;-54
2023/06/14 07:31:15;;;;;;;2.50;1.30;;;22.50;65.50;;;;;;5071061;28;20075;-54
2023/06/14 07:33:41;;;;;;;2.40;1.20;;;22.70;62.60;;;;;;5069979;28;20040;-54
2023/06/14 07:36:08;;;;;;;4.55;1.45;;;22.80;63.60;;;;;;5071454;28;20454;-53
2023/06/14 07:38:34;;;;;;;2.47;1.52;;;22.80;63.10;;;;;;5071593;28;20029;-53
2023/06/14 07:41:00;;;;;;;3.70;1.38;;;22.80;64.40;;;;;;5071673;28;20105;-53
2023/06/14 07:43:26;;;;;;;2.67;1.50;;;22.80;62.80;;;;;;5071543;28;20095;-53
2023/06/14 07:45:52;;;;;;;6.65;3.63;;;22.80;65.50;;;;;;5071427;28;20464;-54
2023/06/14 07:48:18;;;;;;;3.13;1.40;;;22.90;63.50;;;;;;5071044;28;20044;-54
2023/06/14 07:50:43;;;;;;;2.88;1.48;;;23.00;63.80;;;;;;5071270;28;20035;-50
2023/06/14 07:53:09;;;;;;;2.25;1.48;;;23.10;63.50;;;;;;5071263;28;20029;-52
2023/06/14 07:55:36;;;;;;;1.50;1.00;;;23.20;63.30;;;;;;5071249;28;20179;-54
2023/06/14 07:58:06;;;;;;;1.95;1.10;;;23.20;62.70;;;;;;5071090;28;20032;-54
2023/06/14 08:00:32;;;;;;;2.80;1.40;;;23.10;61.60;;;;;;5070711;28;20040;-53
2023/06/14 08:02:59;;;;;;;2.45;1.52;;;23.10;62.00;;;;;;5070919;28;20024;-52
2023/06/14 08:05:28;;;;;;;2.33;1.60;;;23.10;62.60;;;;;;5071595;28;20036;-53
2023/06/14 08:07:55;;;;;;;2.78;1.60;;;23.10;62.60;;;;;;5070942;28;20206;-52
2023/06/14 08:10:21;;;;;;;2.40;1.73;;;23.10;63.50;;;;;;5071164;28;20078;-50
2023/06/14 08:12:48;;;;;;;2.45;1.33;;;23.20;63.60;;;;;;5071023;28;20397;-53
2023/06/14 08:15:14;;;;;;;4.07;1.50;;;23.20;62.50;;;;;;5074452;28;20102;-54
2023/06/14 08:17:40;;;;;;;2.35;1.17;;;23.10;63.20;;;;;;5074909;28;20029;-54
2023/06/14 08:20:07;;;;;;;4.47;1.60;;;23.10;62.80;;;;;;5074959;28;20048;-54
2023/06/14 08:22:34;;;;;;;6.00;1.63;;;23.10;63.10;;;;;;5074786;28;20020;-54
2023/06/14 08:25:03;;;;;;;2.08;1.25;;;23.00;63.20;;;;;;5074834;28;20043;-53
2023/06/14 08:27:30;;;;;;;2.83;1.33;;;23.00;63.80;;;;;;5074683;28;20123;-51
2023/06/14 08:29:56;;;;;;;3.75;1.33;;;23.00;63.90;;;;;;5074512;28;20040;-50
2023/06/14 08:32:22;;;;;;;3.25;1.33;;;22.90;64.30;;;;;;5074654;28;20043;-53
2023/06/14 08:34:48;;;;;;;1.98;1.33;;;23.00;65.30;;;;;;5074310;28;20059;-54
2023/06/14 08:37:14;;;;;;;2.10;1.25;;;23.00;63.60;;;;;;5074149;28;20032;-54
2023/06/14 08:39:39;;;;;;;2.17;1.40;;;23.00;64.00;;;;;;5074364;28;20028;-54
2023/06/14 08:42:07;;;;;;;3.30;1.58;;;23.10;64.90;;;;;;5074084;28;20024;-54
2023/06/14 08:44:33;;;;;;;2.72;1.40;;;23.20;64.40;;;;;;5074106;28;20107;-53
2023/06/14 08:47:00;;;;;;;4.30;1.70;;;23.20;63.50;;;;;;5073746;28;20029;-54
2023/06/14 08:49:26;;;;;;;4.20;1.77;;;23.20;63.70;;;;;;5074146;28;20393;-52
2023/06/14 08:52:00;;;;;;;2.80;1.33;;;23.10;63.70;;;;;;5073633;28;20036;-53
2023/06/14 08:54:30;;;;;;;2.95;1.52;;;23.10;62.50;;;;;;5074165;28;20054;-53
2023/06/14 08:56:59;;;;;;;5.78;2.70;;;23.20;62.90;;;;;;5074248;28;20063;-54
2023/06/14 08:59:26;;;;;;;2.05;1.20;;;23.10;63.10;;;;;;5074139;28;20064;-54
2023/06/14 09:01:54;;;;;;;2.40;1.58;;;23.00;65.00;;;;;;5074148;28;20445;-54
2023/06/14 09:04:21;;;;;;;4.72;2.75;;;23.10;65.20;;;;;;5074139;28;20025;-52
2023/06/14 09:06:52;;;;;;;2.80;1.50;;;23.20;62.70;;;;;;5074071;28;20029;-52
2023/06/14 09:09:20;;;;;;;2.13;1.48;;;23.20;62.60;;;;;;5073884;28;20110;-53
2023/06/14 09:11:46;;;;;;;2.40;1.20;;;23.20;62.80;;;;;;5073699;28;20036;-54
2023/06/14 09:14:12;;;;;;;2.05;1.40;;;23.10;64.00;;;;;;5073559;28;20061;-54
2023/06/14 09:16:38;;;;;;;3.05;1.40;;;23.10;62.50;;;;;;5073082;28;20468;-53
2023/06/14 09:19:03;;;;;;;2.45;1.35;;;23.00;62.60;;;;;;5073732;28;20039;-53
2023/06/14 09:21:34;;;;;;;2.75;1.50;;;23.00;63.20;;;;;;5073740;28;20020;-52
2023/06/14 09:24:00;;;;;;;2.05;1.40;;;23.10;64.80;;;;;;5072994;28;20461;-54
2023/06/14 09:26:27;;;;;;;2.95;1.50;;;23.10;65.00;;;;;;5073288;28;20032;-53
2023/06/14 09:28:55;;;;;;;2.63;1.38;;;23.10;63.90;;;;;;5073456;28;20107;-54
2023/06/14 09:31:22;;;;;;;2.35;1.23;;;23.20;63.40;;;;;;5073082;28;20115;-54
2023/06/14 09:33:51;;;;;;;3.25;1.50;;;23.10;61.30;;;;;;5073453;28;20054;-54
2023/06/14 09:36:24;;;;;;;2.58;1.38;;;23.10;61.50;;;;;;5072717;28;20406;-54
2023/06/14 09:39:04;;;;;;;2.67;1.10;;;23.20;62.50;;;;;;5073093;28;20024;-54
2023/06/14 09:41:38;;;;;;;3.08;1.13;;;23.20;62.40;;;;;;5073059;28;20029;-54
2023/06/14 09:44:06;;;;;;;1.48;1.00;;;23.20;61.90;;;;;;5073011;28;20020;-52
2023/06/14 09:46:32;;;;;;;1.58;1.00;;;23.20;61.60;;;;;;5072959;28;20028;-54
2023/06/14 09:48:59;;;;;;;3.03;1.23;;;23.20;61.40;;;;;;5073008;28;20037;-54
2023/06/14 09:51:26;;;;;;;1.73;1.20;;;23.30;60.60;;;;;;5072844;28;20032;-49
2023/06/14 09:53:52;;;;;;;1.85;0.98;;;23.20;60.10;;;;;;5072867;28;20036;-51
2023/06/14 09:56:40;;;;;;;2.08;1.10;;;23.20;60.30;;;;;;5072676;28;20090;-53
2023/06/14 09:59:09;;;;;;;1.27;0.90;;;23.10;60.70;;;;;;5072773;28;20074;-53
2023/06/14 10:01:41;;;;;;;2.17;1.25;;;23.10;59.80;;;;;;5072365;28;20240;-53
2023/06/14 10:04:08;;;;;;;1.90;1.30;;;23.10;60.70;;;;;;5072677;28;20032;-48
2023/06/14 10:06:37;;;;;;;3.65;1.70;;;23.20;60.80;;;;;;5072069;28;20021;-53
2023/06/14 10:09:04;;;;;;;;;;;23.30;61.40;;;;;;5073229;28;20033;-51
2023/06/14 10:11:29;;;;;;;1.40;1.02;;;23.30;60.80;;;;;;5072212;28;19939;-50
2023/06/14 10:13:57;;;;;;;2.30;1.27;;;23.30;60.10;;;;;;5072458;28;20086;-48
2023/06/14 10:16:37;;;;;;;2.07;0.97;;;23.30;60.50;;;;;;5072656;28;20489;-51
2023/06/14 10:19:07;;;;;;;1.55;1.15;;;23.30;59.60;;;;;;5072609;28;20029;-49
2023/06/14 10:22:02;;;;;;;2.53;1.00;;;23.30;59.90;;;;;;5071966;28;20032;-50
2023/06/14 10:24:40;;;;;;;1.83;0.95;;;23.40;60.40;;;;;;5072159;28;20031;-48
2023/06/14 10:27:11;;;;;;;1.60;1.00;;;23.40;60.20;;;;;;5071979;28;20107;-50
2023/06/14 10:30:07;;;;;;;2.42;0.90;;;23.50;61.10;;;;;;5072040;28;20077;-48
2023/06/14 10:32:33;;;;;;;3.15;0.98;;;23.50;61.60;;;;;;5058461;28;20041;-51
2023/06/14 10:35:15;;;;;;;2.22;0.70;;;23.60;60.30;;;;;;5071814;28;20035;-51
2023/06/14 10:37:41;;;;;;;7.63;0.75;;;23.60;61.10;;;;;;5071264;28;20028;-50
2023/06/14 10:40:08;;;;;;;1.92;0.95;;;23.50;59.00;;;;;;5072175;28;20063;-51
2023/06/14 10:42:34;;;;;;;2.55;1.55;;;23.40;59.30;;;;;;5071958;28;20040;-50
2023/06/14 10:45:00;;;;;;;2.10;1.08;;;23.40;60.00;;;;;;5070842;28;20028;-50
2023/06/14 10:47:31;;;;;;;2.78;1.00;;;23.40;59.90;;;;;;5072131;28;20032;-49
2023/06/14 10:50:08;;;;;;;2.15;0.80;;;23.40;58.60;;;;;;5071838;28;20036;-50
2023/06/14 10:52:39;;;;;;;1.50;0.85;;;23.40;59.90;;;;;;5072172;28;20031;-50
2023/06/14 10:55:16;;;;;;;1.55;0.70;;;23.40;59.00;;;;;;5071717;28;20031;-50
2023/06/14 10:57:55;;;;;;;2.67;1.65;;;23.50;58.50;;;;;;5071451;28;20024;-52
2023/06/14 11:00:30;;;;;;;2.55;0.90;;;23.50;59.20;;;;;;5071755;28;20055;-51
2023/06/14 11:03:34;;;;;;;1.40;0.70;;;23.50;59.60;;;;;;5071700;28;20063;-50
2023/06/14 11:06:00;;;;;;;1.45;0.80;;;23.60;59.60;;;;;;5071475;28;20036;-50
2023/06/14 11:09:16;;;;;;;2.10;0.95;;;23.70;59.30;;;;;;5071829;28;20488;-53
2023/06/14 11:11:43;;;;;;;1.17;0.70;;;23.70;59.00;;;;;;5028806;28;20502;-49
2023/06/14 11:14:10;;;;;;;2.80;1.50;;;23.70;59.60;;;;;;5062919;28;20436;-51
2023/06/14 11:16:36;;;;;;;1.63;1.10;;;23.80;59.50;;;;;;5071275;28;20060;-50
2023/06/14 11:19:05;;;;;;;2.92;1.67;;;23.70;60.20;;;;;;5071449;28;20111;-48
2023/06/14 11:21:33;;;;;;;;;;;23.70;58.90;;;;;;5071684;28;20378;-52
2023/06/14 11:23:58;;;;;;;3.22;1.45;;;23.70;59.40;;;;;;5071736;28;19912;-51
2023/06/14 11:26:29;;;;;;;1.33;0.82;;;23.60;60.30;;;;;;5071168;28;20091;-50
2023/06/14 11:28:57;;;;;;;14.23;5.80;;;23.60;60.30;;;;;;5071239;28;20516;-51
2023/06/14 11:31:23;;;;;;;3.83;1.10;;;23.70;60.90;;;;;;5070892;28;20033;-51
2023/06/14 11:33:55;;;;;;;1.63;0.95;;;23.70;61.10;;;;;;5071399;28;20036;-52
2023/06/14 11:36:21;;;;;;;1.77;0.82;;;23.70;60.70;;;;;;5071083;28;20033;-50
2023/06/14 11:38:46;;;;;;;1.10;1.00;;;23.80;60.50;;;;;;5071366;28;20016;-52
2023/06/14 11:41:12;;;;;;;1.52;1.05;;;23.80;60.90;;;;;;5071126;28;20028;-50
2023/06/14 11:43:40;;;;;;;2.38;1.10;;;23.90;60.40;;;;;;5070980;28;20024;-51
2023/06/14 11:46:14;;;;;;;4.55;1.80;;;23.90;60.50;;;;;;5071244;28;20032;-51
2023/06/14 11:48:43;;;;;;;2.17;1.10;;;23.80;59.90;;;;;;5074230;28;20111;-53
2023/06/14 11:51:08;;;;;;;1.27;0.90;;;23.70;60.50;;;;;;5074893;28;20037;-50
2023/06/14 11:53:35;;;;;;;1.00;0.80;;;23.70;61.00;;;;;;5075093;28;20422;-49
2023/06/14 11:56:01;;;;;;;1.60;1.10;;;23.80;61.20;;;;;;5075005;28;20040;-53
2023/06/14 11:58:28;;;;;;;2.15;1.20;;;23.80;60.80;;;;;;5074924;28;20024;-54
2023/06/14 12:00:55;;;;;;;2.92;1.30;;;23.70;61.10;;;;;;5074801;28;20115;-52
2023/06/14 12:03:28;;;;;;;3.42;0.77;;;23.80;61.50;;;;;;5075311;28;20039;-54
2023/06/14 12:06:08;;;;;;;1.48;0.90;;;23.80;60.40;;;;;;5074751;28;20024;-50
2023/06/14 12:08:41;;;;;;;4.68;1.13;;;23.80;61.70;;;;;;5074471;28;20432;-53
2023/06/14 12:11:13;;;;;;;1.52;0.90;;;23.90;61.00;;;;;;5074723;28;20500;-52
2023/06/14 12:13:40;;;;;;;2.30;1.00;;;24.00;61.60;;;;;;5075030;28;20024;-52
2023/06/14 12:16:10;;;;;;;1.20;1.10;;;24.00;61.00;;;;;;5074996;28;20036;-52
2023/06/14 12:18:39;;;;;;;2.17;1.40;;;24.00;60.80;;;;;;5073359;28;20497;-54
2023/06/14 12:21:09;;;;;;;1.45;1.05;;;24.00;61.50;;;;;;5074343;28;20047;-52
2023/06/14 12:23:48;;;;;;;1.20;0.90;;;24.00;61.50;;;;;;5074742;28;20489;-53
2023/06/14 12:26:18;;;;;;;;;;;23.90;61.40;;;;;;5075203;28;20457;-49
2023/06/14 12:28:47;;;;;;;1.30;1.00;;;23.90;61.70;;;;;;5074682;28;19962;-52
2023/06/14 12:31:15;;;;;;;1.55;1.00;;;23.90;61.80;;;;;;5074119;28;20052;-50
2023/06/14 12:33:41;;;;;;;3.25;1.00;;;24.00;61.70;;;;;;5074131;28;20033;-51
2023/06/14 12:36:08;;;;;;;2.03;1.00;;;24.00;61.80;;;;;;5074194;28;20036;-49
2023/06/14 12:38:34;;;;;;;1.83;1.00;;;24.10;62.10;;;;;;5074143;28;20040;-54
2023/06/14 12:41:00;;;;;;;1.88;1.23;;;24.30;62.30;;;;;;5074229;28;20025;-55
2023/06/14 12:43:26;;;;;;;4.63;1.23;;;24.30;61.40;;;;;;5074167;28;20016;-52
2023/06/14 12:45:52;;;;;;;2.72;1.10;;;24.30;61.60;;;;;;5074098;28;20397;-53
2023/06/14 12:48:17;;;;;;;3.72;1.30;;;24.30;62.00;;;;;;5073865;28;20109;-52
2023/06/14 12:50:43;;;;;;;2.38;1.13;;;24.40;62.30;;;;;;5074263;28;20032;-53
2023/06/14 12:53:09;;;;;;;2.45;1.40;;;24.40;60.90;;;;;;5074083;28;20032;-50